createdAt,value
2018-05-25T00:00:00.272Z,12.40
2018-05-25T00:02:27.835Z,12.40
2018-05-25T00:04:55.329Z,12.40
2018-05-25T00:07:22.818Z,12.40
2018-05-25T00:09:50.346Z,12.40
2018-05-25T00:12:17.834Z,12.30
2018-05-25T00:14:45.343Z,12.30
2018-05-25T00:17:12.882Z,12.30
2018-05-25T00:19:40.382Z,12.30
2018-05-25T00:22:07.872Z,12.20
2018-05-25T00:24:35.430Z,12.20
2018-05-25T00:27:02.924Z,12.20
2018-05-25T00:29:30.422Z,12.10
2018-05-25T00:31:58.977Z,12.10
2018-05-25T00:34:26.471Z,12.00
2018-05-25T00:36:53.969Z,12.10
2018-05-25T00:39:21.494Z,12.00
2018-05-25T00:41:48.978Z,12.00
2018-05-25T00:44:16.466Z,12.00
2018-05-25T00:46:44.063Z,12.00
2018-05-25T00:49:11.562Z,12.00
2018-05-25T00:51:39.092Z,12.00
2018-05-25T00:54:06.594Z,12.00
2018-05-25T00:56:34.086Z,12.00
2018-05-25T00:59:01.575Z,12.00
2018-05-25T01:01:29.099Z,12.10
2018-05-25T01:03:56.593Z,12.10
2018-05-25T01:06:24.087Z,12.10
2018-05-25T01:08:51.623Z,12.00
2018-05-25T01:11:19.108Z,12.00
2018-05-25T01:13:46.616Z,12.00
2018-05-25T01:16:14.211Z,11.90
2018-05-25T01:18:41.699Z,11.90
2018-05-25T01:21:09.195Z,11.90
2018-05-25T01:23:36.722Z,11.80
2018-05-25T01:26:04.229Z,11.90
2018-05-25T01:28:31.714Z,11.80
2018-05-25T01:30:59.231Z,11.80
2018-05-25T01:33:26.718Z,11.80
2018-05-25T01:35:54.207Z,11.70
2018-05-25T01:38:21.753Z,11.60
2018-05-25T01:40:49.244Z,11.60
2018-05-25T01:43:16.759Z,11.60
2018-05-25T01:45:44.335Z,11.60
2018-05-25T01:48:11.828Z,11.60
2018-05-25T01:50:39.342Z,11.60
2018-05-25T01:53:07.632Z,11.60
2018-05-25T01:55:35.129Z,11.60
2018-05-25T01:58:02.623Z,11.60
2018-05-25T02:00:30.154Z,11.60
2018-05-25T02:02:57.639Z,11.60
2018-05-25T02:05:25.146Z,11.60
2018-05-25T02:07:52.698Z,11.60
2018-05-25T02:10:20.182Z,11.50
2018-05-25T02:12:47.680Z,11.50
2018-05-25T02:15:15.206Z,11.40
2018-05-25T02:17:42.781Z,11.40
2018-05-25T02:20:10.269Z,11.40
2018-05-25T02:22:37.794Z,11.30
2018-05-25T02:25:05.282Z,11.20
2018-05-25T02:27:32.763Z,11.20
2018-05-25T02:30:01.060Z,11.10
2018-05-25T02:32:28.555Z,11.00
2018-05-25T02:34:56.042Z,11.00
2018-05-25T02:37:23.598Z,11.00
2018-05-25T02:39:51.082Z,10.90
2018-05-25T02:42:18.569Z,10.90
2018-05-25T02:44:46.096Z,10.90
2018-05-25T02:47:13.602Z,10.80
2018-05-25T02:49:41.086Z,10.80
2018-05-25T02:52:08.622Z,10.70
2018-05-25T02:54:36.110Z,10.70
2018-05-25T02:57:03.601Z,10.60
2018-05-25T02:59:31.111Z,10.50
2018-05-25T03:01:58.595Z,10.50
2018-05-25T03:04:26.094Z,10.40
2018-05-25T03:06:53.602Z,10.30
2018-05-25T03:09:21.083Z,10.30
2018-05-25T03:11:48.587Z,10.20
2018-05-25T03:14:16.146Z,10.20
2018-05-25T03:16:43.632Z,10.10
2018-05-25T03:19:11.116Z,10.10
2018-05-25T03:21:38.639Z,10.00
2018-05-25T03:24:06.136Z,10.00
2018-05-25T03:26:33.623Z,10.00
2018-05-25T03:29:01.926Z,10.00
2018-05-25T03:31:29.410Z,10.00
2018-05-25T03:33:56.895Z,10.10
2018-05-25T03:36:24.459Z,10.10
2018-05-25T03:38:51.990Z,10.20
2018-05-25T03:41:19.481Z,10.20
2018-05-25T03:43:47.007Z,10.30
2018-05-25T03:46:14.490Z,10.30
2018-05-25T03:48:41.971Z,10.40
2018-05-25T03:51:09.505Z,10.40
2018-05-25T03:53:36.990Z,10.40
2018-05-25T03:56:04.478Z,10.50
2018-05-25T03:58:43.919Z,10.50
2018-05-25T04:01:23.110Z,10.60
2018-05-25T04:03:50.638Z,10.70
2018-05-25T04:06:18.130Z,10.80
2018-05-25T04:08:45.630Z,10.90
2018-05-25T04:11:13.917Z,11.10
2018-05-25T04:13:41.407Z,11.00
2018-05-25T04:16:08.890Z,11.10
2018-05-25T04:18:36.423Z,11.20
2018-05-25T04:21:03.910Z,11.20
2018-05-25T04:23:31.402Z,11.30
2018-05-25T04:25:58.971Z,11.30
2018-05-25T04:28:26.472Z,11.40
2018-05-25T04:30:53.955Z,11.50
2018-05-25T04:33:21.483Z,11.50
2018-05-25T04:35:48.970Z,11.60
2018-05-25T04:38:16.562Z,11.70
2018-05-25T04:40:46.108Z,11.70
2018-05-25T04:43:13.650Z,11.80
2018-05-25T04:45:41.175Z,11.80
2018-05-25T04:48:08.693Z,11.90
2018-05-25T04:50:36.183Z,12.00
2018-05-25T04:53:03.675Z,12.10
2018-05-25T04:55:31.259Z,12.20
2018-05-25T04:57:58.747Z,12.30
2018-05-25T05:00:26.246Z,12.40
2018-05-25T05:02:53.782Z,12.60
2018-05-25T05:05:21.281Z,12.70
2018-05-25T05:07:49.538Z,13.00
2018-05-25T05:10:17.152Z,13.00
2018-05-25T05:12:44.646Z,13.20
2018-05-25T05:15:12.157Z,13.20
2018-05-25T05:17:39.678Z,13.40
2018-05-25T05:20:07.164Z,13.50
2018-05-25T05:22:35.418Z,13.60
2018-05-25T05:25:02.999Z,13.60
2018-05-25T05:27:30.507Z,13.70
2018-05-25T05:29:57.998Z,13.80
2018-05-25T05:32:25.529Z,13.90
2018-05-25T05:34:53.014Z,14.00
2018-05-25T05:37:20.502Z,14.00
2018-05-25T05:39:48.014Z,14.10
2018-05-25T05:42:15.498Z,14.20
2018-05-25T05:44:42.987Z,14.20
2018-05-25T05:47:11.270Z,14.40
2018-05-25T05:49:38.825Z,14.40
2018-05-25T05:52:07.076Z,14.60
2018-05-25T05:54:34.635Z,14.60
2018-05-25T05:57:02.135Z,14.70
2018-05-25T05:59:30.995Z,15.00
2018-05-25T06:01:58.527Z,15.00
2018-05-25T06:04:26.079Z,15.10
2018-05-25T06:06:53.524Z,15.20
2018-05-25T06:09:21.063Z,15.30
2018-05-25T06:11:49.320Z,15.50
2018-05-25T06:14:16.811Z,15.40
2018-05-25T06:16:45.096Z,15.70
2018-05-25T06:19:12.579Z,15.70
2018-05-25T06:21:40.063Z,15.80
2018-05-25T06:24:07.630Z,15.90
2018-05-25T06:26:35.110Z,16.10
2018-05-25T06:29:02.594Z,16.20
2018-05-25T06:31:30.130Z,16.40
2018-05-25T06:33:57.619Z,16.60
2018-05-25T06:36:25.106Z,16.80
2018-05-25T06:38:52.648Z,17.00
2018-05-25T06:41:20.142Z,17.10
2018-05-25T06:43:47.643Z,17.30
2018-05-25T06:46:15.934Z,17.60
2018-05-25T06:48:44.502Z,17.70
2018-05-25T06:51:12.031Z,17.70
2018-05-25T06:53:39.591Z,17.80
2018-05-25T06:56:07.101Z,17.90
2018-05-25T06:58:34.739Z,18.00
2018-05-25T07:01:03.107Z,18.30
2018-05-25T07:03:30.603Z,18.30
2018-05-25T07:05:58.863Z,18.50
2018-05-25T07:08:26.399Z,18.40
2018-05-25T07:10:53.906Z,18.50
2018-05-25T07:13:22.179Z,18.70
2018-05-25T07:15:49.728Z,18.70
2018-05-25T07:18:17.992Z,18.90
2018-05-25T07:20:45.495Z,18.90
2018-05-25T07:23:13.060Z,19.00
2018-05-25T07:25:41.022Z,19.10
2018-05-25T07:28:08.567Z,19.10
2018-05-25T07:30:36.888Z,19.30
2018-05-25T07:33:04.383Z,19.30
2018-05-25T07:35:31.946Z,19.40
2018-05-25T07:37:59.467Z,19.40
2018-05-25T07:40:26.968Z,19.50
2018-05-25T07:42:54.450Z,19.60
2018-05-25T07:45:22.019Z,19.70
2018-05-25T07:47:50.284Z,19.90
2018-05-25T07:50:17.787Z,19.90
2018-05-25T07:52:45.320Z,20.00
2018-05-25T07:55:13.582Z,20.10
2018-05-25T07:57:41.071Z,20.10
2018-05-25T08:00:08.603Z,20.20
2018-05-25T08:02:36.858Z,20.40
2018-05-25T08:05:04.344Z,20.40
2018-05-25T08:07:31.908Z,20.50
2018-05-25T08:10:00.186Z,20.70
2018-05-25T08:12:27.678Z,20.70
2018-05-25T08:14:55.198Z,20.90
2018-05-25T08:17:22.735Z,21.00
2018-05-25T08:19:50.226Z,21.00
2018-05-25T08:22:17.775Z,21.00
2018-05-25T08:24:45.280Z,21.00
2018-05-25T08:27:12.778Z,21.00
2018-05-25T08:29:40.350Z,21.10
2018-05-25T08:32:08.069Z,21.20
2018-05-25T08:34:39.487Z,21.20
2018-05-25T08:37:07.774Z,21.30
2018-05-25T08:39:35.267Z,21.30
2018-05-25T08:42:02.759Z,21.40
2018-05-25T08:44:30.282Z,21.40
2018-05-25T08:46:57.775Z,21.40
2018-05-25T08:49:25.291Z,21.50
2018-05-25T08:51:52.928Z,21.50
2018-05-25T08:54:21.193Z,21.70
2018-05-25T08:56:48.698Z,21.60
2018-05-25T08:59:16.235Z,21.70
2018-05-25T09:01:44.490Z,21.70
2018-05-25T09:04:11.982Z,21.70
2018-05-25T09:06:40.809Z,21.90
2018-05-25T09:09:08.298Z,21.80
2018-05-25T09:11:35.791Z,21.90
2018-05-25T09:14:03.303Z,22.00
2018-05-25T09:16:30.791Z,22.00
2018-05-25T09:18:58.274Z,22.10
2018-05-25T09:21:25.811Z,22.10
2018-05-25T09:23:53.303Z,22.10
2018-05-25T09:26:20.782Z,22.10
2018-05-25T09:28:48.346Z,22.30
2018-05-25T09:31:15.838Z,22.30
2018-05-25T09:33:44.230Z,22.40
2018-05-25T09:36:11.737Z,22.40
2018-05-25T09:38:39.242Z,22.40
2018-05-25T09:41:06.730Z,22.40
2018-05-25T09:43:35.036Z,22.50
2018-05-25T09:46:02.528Z,22.50
2018-05-25T09:48:30.028Z,22.50
2018-05-25T09:50:58.352Z,22.60
2018-05-25T09:53:25.836Z,22.60
2018-05-25T09:55:53.326Z,22.60
2018-05-25T09:58:21.622Z,22.70
2018-05-25T10:00:49.105Z,22.70
2018-05-25T10:03:16.604Z,22.70
2018-05-25T10:05:44.134Z,22.70
2018-05-25T10:08:11.618Z,22.70
2018-05-25T10:10:39.102Z,22.60
2018-05-25T10:13:06.611Z,22.60
2018-05-25T10:15:34.102Z,22.70
2018-05-25T10:18:01.596Z,22.70
2018-05-25T10:20:29.166Z,22.70
2018-05-25T10:22:56.655Z,22.70
2018-05-25T10:25:24.148Z,22.80
2018-05-25T10:27:51.686Z,22.80
2018-05-25T10:30:19.171Z,22.90
2018-05-25T10:32:46.658Z,23.00
2018-05-25T10:35:14.943Z,23.20
2018-05-25T10:37:43.369Z,23.10
2018-05-25T10:40:10.864Z,23.20
2018-05-25T10:42:38.419Z,23.30
2018-05-25T10:45:05.910Z,23.40
2018-05-25T10:47:33.398Z,23.50
2018-05-25T10:50:00.942Z,23.50
2018-05-25T10:52:28.431Z,23.50
2018-05-25T10:54:55.921Z,23.50
2018-05-25T10:57:23.446Z,23.50
2018-05-25T10:59:50.942Z,23.60
2018-05-25T11:02:18.441Z,23.70
2018-05-25T11:04:45.956Z,23.70
2018-05-25T11:07:13.443Z,23.70
2018-05-25T11:09:40.932Z,23.70
2018-05-25T11:12:08.494Z,23.70
2018-05-25T11:14:35.989Z,23.70
2018-05-25T11:17:03.480Z,23.70
2018-05-25T11:19:31.775Z,23.70
2018-05-25T11:21:59.264Z,23.70
2018-05-25T11:24:26.746Z,23.90
2018-05-25T11:26:54.265Z,23.90
2018-05-25T11:29:21.757Z,23.90
2018-05-25T11:31:49.245Z,23.90
2018-05-25T11:34:16.766Z,23.90
2018-05-25T11:36:44.270Z,24.00
2018-05-25T11:39:11.755Z,24.20
2018-05-25T11:41:39.264Z,24.30
2018-05-25T11:44:06.784Z,24.40
2018-05-25T11:46:34.278Z,24.40
2018-05-25T11:49:01.779Z,24.50
2018-05-25T11:51:29.314Z,24.50
2018-05-25T11:53:56.793Z,24.60
2018-05-25T11:56:25.046Z,24.80
2018-05-25T11:58:52.570Z,24.70
2018-05-25T12:01:20.058Z,24.80
2018-05-25T12:03:47.543Z,24.80
2018-05-25T12:06:15.066Z,24.90
2018-05-25T12:08:42.554Z,25.00
2018-05-25T12:11:10.043Z,25.00
2018-05-25T12:13:38.398Z,25.00
2018-05-25T12:16:05.934Z,25.00
2018-05-25T12:18:34.289Z,25.00
2018-05-25T12:21:01.818Z,25.20
2018-05-25T12:23:29.311Z,25.40
2018-05-25T12:25:56.806Z,25.50
2018-05-25T12:28:24.319Z,25.60
2018-05-25T12:30:51.807Z,25.80
2018-05-25T12:33:19.295Z,25.80
2018-05-25T12:35:46.892Z,25.70
2018-05-25T12:38:14.387Z,25.80
2018-05-25T12:40:41.878Z,25.80
2018-05-25T12:43:09.392Z,25.80
2018-05-25T12:45:36.951Z,25.80
2018-05-25T12:48:04.450Z,25.90
2018-05-25T12:50:31.992Z,26.00
2018-05-25T12:52:59.478Z,26.10
2018-05-25T12:55:26.958Z,26.30
2018-05-25T12:57:54.455Z,26.50
2018-05-25T13:00:21.949Z,26.80
2018-05-25T13:02:49.478Z,26.90
2018-05-25T13:05:17.551Z,26.90
2018-05-25T13:07:45.046Z,26.90
2018-05-25T13:10:12.568Z,26.90
2018-05-25T13:12:40.057Z,27.00
2018-05-25T13:15:07.543Z,27.00
2018-05-25T13:17:35.074Z,27.00
2018-05-25T13:20:02.558Z,27.10
2018-05-25T13:22:30.043Z,27.20
2018-05-25T13:24:58.318Z,27.30
2018-05-25T13:27:26.570Z,27.50
2018-05-25T13:29:54.098Z,27.40
2018-05-25T13:32:21.599Z,27.60
2018-05-25T13:34:49.086Z,27.70
2018-05-25T13:37:16.622Z,27.70
2018-05-25T13:39:44.123Z,27.90
2018-05-25T13:42:11.639Z,28.00
2018-05-25T13:44:39.232Z,28.00
2018-05-25T13:47:06.762Z,28.20
2018-05-25T13:49:34.258Z,28.50
2018-05-25T13:52:02.557Z,28.70
2018-05-25T13:54:30.052Z,28.60
2018-05-25T13:56:57.538Z,28.70
2018-05-25T13:59:25.831Z,28.60
2018-05-25T14:01:53.327Z,28.60
2018-05-25T14:04:20.811Z,28.50
2018-05-25T14:06:49.323Z,28.60
2018-05-25T14:09:16.816Z,28.60
2018-05-25T14:11:44.428Z,28.60
2018-05-25T14:14:11.885Z,28.40
2018-05-25T14:16:39.387Z,28.20
2018-05-25T14:19:06.922Z,28.10
2018-05-25T14:21:34.413Z,28.00
2018-05-25T14:24:01.903Z,27.80
2018-05-25T14:26:30.553Z,27.60
2018-05-25T14:28:58.065Z,27.60
2018-05-25T14:31:25.564Z,27.60
2018-05-25T14:33:53.836Z,27.60
2018-05-25T14:36:21.619Z,27.60
2018-05-25T14:38:49.199Z,27.60
2018-05-25T14:41:16.697Z,27.60
2018-05-25T14:43:44.219Z,27.60
2018-05-25T14:46:11.758Z,27.70
2018-05-25T14:48:39.247Z,27.70
2018-05-25T14:51:06.730Z,27.70
2018-05-25T14:53:34.231Z,27.60
2018-05-25T14:56:01.723Z,27.60
2018-05-25T14:58:29.220Z,27.50
2018-05-25T15:00:56.719Z,27.40
2018-05-25T15:03:25.021Z,27.20
2018-05-25T15:05:52.510Z,27.20
2018-05-25T15:08:20.004Z,27.00
2018-05-25T15:10:48.307Z,26.70
2018-05-25T15:13:15.807Z,26.70
2018-05-25T15:15:43.299Z,26.70
2018-05-25T15:18:11.767Z,26.80
2018-05-25T15:20:39.255Z,26.80
2018-05-25T15:23:06.795Z,26.80
2018-05-25T15:25:34.291Z,27.00
2018-05-25T15:28:01.786Z,27.20
2018-05-25T15:30:29.283Z,27.40
2018-05-25T15:32:57.563Z,27.80
2018-05-25T15:35:25.825Z,28.00
2018-05-25T15:37:53.318Z,27.90
2018-05-25T15:40:20.824Z,28.20
2018-05-25T15:42:48.358Z,28.40
2018-05-25T15:45:15.854Z,28.70
2018-05-25T15:47:43.358Z,29.00
2018-05-25T15:50:10.943Z,29.20
2018-05-25T15:52:38.430Z,29.40
2018-05-25T15:55:06.698Z,30.00
2018-05-25T15:57:34.322Z,29.90
2018-05-25T16:00:01.844Z,30.10
2018-05-25T16:02:29.345Z,30.10
2018-05-25T16:04:56.886Z,30.10
2018-05-25T16:07:24.388Z,30.20
2018-05-25T16:09:51.889Z,30.40
2018-05-25T16:12:19.404Z,30.30
2018-05-25T16:14:46.890Z,30.20
2018-05-25T16:17:14.375Z,30.30
2018-05-25T16:19:41.917Z,30.40
2018-05-25T16:22:09.401Z,30.50
2018-05-25T16:24:36.887Z,30.50
2018-05-25T16:27:04.408Z,30.70
2018-05-25T16:29:31.901Z,30.90
2018-05-25T16:31:59.390Z,31.20
2018-05-25T16:34:26.882Z,31.30
2018-05-25T16:36:54.375Z,31.40
2018-05-25T16:39:22.667Z,31.40
2018-05-25T16:41:50.245Z,31.40
2018-05-25T16:44:17.734Z,31.50
2018-05-25T16:46:45.235Z,31.60
2018-05-25T16:49:12.731Z,31.70
2018-05-25T16:51:40.273Z,31.70
2018-05-25T16:54:07.763Z,31.70
2018-05-25T16:56:35.329Z,31.70
2018-05-25T16:59:02.884Z,31.60
2018-05-25T17:01:30.391Z,31.30
2018-05-25T17:03:57.897Z,30.90
2018-05-25T17:06:25.464Z,30.60
2018-05-25T17:08:52.955Z,30.30
2018-05-25T17:11:20.442Z,30.10
2018-05-25T17:13:47.936Z,29.80
2018-05-25T17:16:15.474Z,29.60
2018-05-25T17:18:42.974Z,29.30
2018-05-25T17:21:11.419Z,29.00
2018-05-25T17:23:39.690Z,28.60
2018-05-25T17:26:07.333Z,28.50
2018-05-25T17:28:34.818Z,28.30
2018-05-25T17:31:02.342Z,27.70
2018-05-25T17:33:29.834Z,27.00
2018-05-25T17:35:57.323Z,26.00
2018-05-25T17:38:24.892Z,25.10
2018-05-25T17:40:52.379Z,24.40
2018-05-25T17:43:19.874Z,23.80
2018-05-25T17:45:48.136Z,22.90
2018-05-25T17:48:15.766Z,22.80
2018-05-25T17:50:43.298Z,22.50
2018-05-25T17:53:10.782Z,22.20
2018-05-25T17:55:38.266Z,22.00
2018-05-25T17:58:05.852Z,21.80
2018-05-25T18:00:33.786Z,21.50
2018-05-25T18:03:01.275Z,21.40
2018-05-25T18:05:29.566Z,21.10
2018-05-25T18:07:57.070Z,21.00
2018-05-25T18:10:24.598Z,20.90
2018-05-25T18:12:52.859Z,20.70
2018-05-25T18:15:20.444Z,20.60
2018-05-25T18:17:47.981Z,20.50
2018-05-25T18:20:15.478Z,20.50
2018-05-25T18:22:43.019Z,20.30
2018-05-25T18:25:10.543Z,20.30
2018-05-25T18:27:38.051Z,20.10
2018-05-25T18:30:05.695Z,20.00
2018-05-25T18:32:33.203Z,19.90
2018-05-25T18:35:01.490Z,19.70
2018-05-25T18:37:28.978Z,19.70
2018-05-25T18:39:56.462Z,19.60
2018-05-25T18:42:24.009Z,19.50
2018-05-25T18:44:51.504Z,19.40
2018-05-25T18:47:19.004Z,19.30
2018-05-25T18:49:46.519Z,19.20
2018-05-25T18:52:14.011Z,19.10
2018-05-25T18:54:41.510Z,19.00
2018-05-25T18:57:09.038Z,18.90
2018-05-25T18:59:36.522Z,18.80
2018-05-25T19:02:04.006Z,18.70
2018-05-25T19:04:32.306Z,18.50
2018-05-25T19:06:59.803Z,18.50
2018-05-25T19:09:27.307Z,18.40
2018-05-25T19:11:55.618Z,18.10
2018-05-25T19:14:23.203Z,18.10
2018-05-25T19:16:50.687Z,18.00
2018-05-25T19:19:18.210Z,17.90
2018-05-25T19:21:45.721Z,17.80
2018-05-25T19:24:13.210Z,17.70
2018-05-25T19:26:40.737Z,17.60
2018-05-25T19:29:08.998Z,17.50
2018-05-25T19:31:36.486Z,17.50
2018-05-25T19:34:04.069Z,17.40
2018-05-25T19:36:31.555Z,17.30
2018-05-25T19:38:59.890Z,17.20
2018-05-25T19:41:28.199Z,17.10
2018-05-25T19:43:55.688Z,17.00
2018-05-25T19:46:23.192Z,16.90
2018-05-25T19:48:51.504Z,16.80
2018-05-25T19:51:19.765Z,16.70
2018-05-25T19:53:47.267Z,16.70
2018-05-25T19:56:14.754Z,16.60
2018-05-25T19:58:42.293Z,16.60
2018-05-25T20:01:09.818Z,16.50
2018-05-25T20:03:37.310Z,16.50
2018-05-25T20:06:04.823Z,16.50
2018-05-25T20:08:32.310Z,16.50
2018-05-25T20:10:59.817Z,16.50
2018-05-25T20:13:27.371Z,16.50
2018-05-25T20:15:54.858Z,16.50
2018-05-25T20:18:23.110Z,16.50
2018-05-25T20:20:50.648Z,16.50
2018-05-25T20:23:18.179Z,16.50
2018-05-25T20:25:46.410Z,16.40
2018-05-25T20:28:13.906Z,16.40
2018-05-25T20:30:41.465Z,16.40
2018-05-25T20:33:08.956Z,16.40
2018-05-25T20:35:36.447Z,16.40
2018-05-25T20:38:03.963Z,16.40
2018-05-25T20:40:31.454Z,16.40
2018-05-25T20:42:58.954Z,16.40
2018-05-25T20:45:27.203Z,16.30
2018-05-25T20:47:54.719Z,16.30
2018-05-25T20:50:22.206Z,16.30
2018-05-25T20:52:49.742Z,16.30
2018-05-25T20:55:17.233Z,16.30
2018-05-25T20:57:44.730Z,16.20
2018-05-25T21:00:13.987Z,16.10
2018-05-25T21:02:41.466Z,16.10
2018-05-25T21:05:08.951Z,16.00
2018-05-25T21:07:37.218Z,16.00
2018-05-25T21:10:04.755Z,15.90
2018-05-25T21:12:32.250Z,15.90
2018-05-25T21:15:00.535Z,15.90
2018-05-25T21:17:28.030Z,15.90
2018-05-25T21:26:38.678Z,15.90
2018-05-25T21:29:06.226Z,15.80
2018-05-25T21:31:33.748Z,15.80
2018-05-25T21:34:01.233Z,15.80
2018-05-25T21:36:28.718Z,15.70
2018-05-25T21:38:56.247Z,15.70
2018-05-25T21:41:23.749Z,15.70
2018-05-25T21:43:51.249Z,15.60
2018-05-25T21:46:18.754Z,15.60
2018-05-25T21:48:46.263Z,15.60
2018-05-25T21:51:13.802Z,15.50
2018-05-25T21:53:42.131Z,15.50
2018-05-25T21:56:09.628Z,15.50
2018-05-25T21:58:37.142Z,15.40
2018-05-25T22:01:04.641Z,15.40
2018-05-25T22:03:32.127Z,15.50
2018-05-25T22:05:59.646Z,15.50
2018-05-25T22:08:27.145Z,15.50
2018-05-25T22:10:54.640Z,15.40
2018-05-25T22:13:22.138Z,15.40
2018-05-25T22:15:49.639Z,15.50
2018-05-25T22:18:17.933Z,15.50
2018-05-25T22:20:45.430Z,15.50
2018-05-25T22:23:12.922Z,15.60
2018-05-25T22:25:41.255Z,15.60
2018-05-25T22:28:08.744Z,15.50
2018-05-25T22:30:36.238Z,15.60
2018-05-25T22:33:04.507Z,15.60
2018-05-25T22:35:31.996Z,15.60
2018-05-25T22:37:59.552Z,15.60
2018-05-25T22:40:27.034Z,15.60
2018-05-25T22:43:06.270Z,15.70
2018-05-25T22:45:45.654Z,15.70
2018-05-25T22:48:24.990Z,15.70
2018-05-25T22:51:04.359Z,15.70
2018-05-25T22:53:37.346Z,15.80
2018-05-25T22:56:04.855Z,15.80
2018-05-25T22:58:32.462Z,15.70
2018-05-25T23:00:59.922Z,15.70
2018-05-25T23:03:27.419Z,15.70
2018-05-25T23:05:54.920Z,15.70
2018-05-25T23:08:22.490Z,15.70
2018-05-25T23:10:50.930Z,15.70
2018-05-25T23:13:18.428Z,15.70
2018-05-25T23:15:45.951Z,15.60
2018-05-25T23:18:13.502Z,15.60
2018-05-25T23:20:40.990Z,15.60
2018-05-25T23:23:08.483Z,15.60
2018-05-25T23:25:36.807Z,15.60
2018-05-25T23:28:04.316Z,15.60
2018-05-25T23:30:32.647Z,15.50
2018-05-25T23:33:00.160Z,15.50
2018-05-25T23:35:28.419Z,15.40
2018-05-25T23:37:55.950Z,15.40
2018-05-25T23:40:23.443Z,15.40
2018-05-25T23:42:50.945Z,15.40
2018-05-25T23:45:18.484Z,15.40
2018-05-25T23:47:45.979Z,15.40
2018-05-25T23:50:13.778Z,15.30
2018-05-25T23:52:41.351Z,15.30
2018-05-25T23:55:08.847Z,15.20
2018-05-25T23:57:36.378Z,15.20
